GSVT2: Red River, Gainesville, TX

Data processed at Sat Dec 09 2017 23:32


All information presented herein is the property of the government of the United States of America and may be revised or deleted at any time without prior notice.
Dissemination of this information without the expressed written consent of the Public Affairs Office, Tulsa District U.S. Army Corps of Engineers is strictly prohibited.
These data are gathered electronically and, as presented, have not undergone any form of quality control. These data are not guaranteed to be valid or correct.
Go to home page.
Go to station list.

Upstream stations:

Downstream station:
Previous Day
Next Day
Current Day
    
SHEF ID:       GSVT2     Red River near Gainesville, TX
STATION TYPE:  

               PRECIP     STAGE  RIV-FLOW  BAT-LOAD
                   in        ft       cfs      volt
              Ccp-Rev   Ccp-Rev   Ccp-Rev   Ccp-Rev
(US/Central)
12/07 00:00      0.00      6.19       605     12.65
12/07 01:00      0.00      6.20       614     12.57
12/07 02:00      0.00      6.20       614     12.57
12/07 03:00      0.00      6.19       605     12.57
12/07 04:00      0.00      6.20       614     12.57
12/07 05:00      0.00      6.20       614     12.49
12/07 06:00      0.00      6.20       614     12.49
12/07 07:00      0.00      6.21       624     12.41
12/07 08:00      0.00      6.22       634     12.41
12/07 09:00      0.00      6.21       624     12.57
12/07 10:00      0.00      6.22       634     13.05
12/07 11:00      0.00      6.22       634     13.29
12/07 12:00      0.00      6.22       634     13.37
12/07 13:00      0.00      6.22       634     13.29
12/07 14:00      0.00      6.21       624     13.21
12/07 15:00      0.00      6.08       500     13.13
12/07 16:00      0.00      6.19       605     13.05
12/07 17:00      0.00      6.20       614     13.05
12/07 18:00      0.00      6.19       605     12.81
12/07 19:00      0.00      6.20       614     12.65
12/07 20:00      0.00      6.20       614     12.65
12/07 21:00      0.00      6.22       634     12.65
12/07 22:00      0.00      6.23       644     12.57
12/07 23:00      0.00      6.20       614     12.57